sensor_id;sensor_type;location;lat;lon;timestamp;pressure;altitude;pressure_sealevel;temperature;humidity
40574;BME280;26283;49.020;8.644;2023-05-29T00:00:38;99302.53;;;22.20;47.34
40574;BME280;26283;49.020;8.644;2023-05-29T00:03:04;99300.91;;;22.19;47.31
40574;BME280;26283;49.020;8.644;2023-05-29T00:05:30;99301.19;;;22.18;47.37
40574;BME280;26283;49.020;8.644;2023-05-29T00:07:55;99305.88;;;22.17;47.37
40574;BME280;26283;49.020;8.644;2023-05-29T00:10:21;99292.44;;;22.16;47.37
40574;BME280;26283;49.020;8.644;2023-05-29T00:12:46;99290.81;;;22.15;47.34
40574;BME280;26283;49.020;8.644;2023-05-29T00:15:11;99289.16;;;22.14;47.33
40574;BME280;26283;49.020;8.644;2023-05-29T00:17:37;99290.28;;;22.13;47.17
40574;BME280;26283;49.020;8.644;2023-05-29T00:20:03;99298.50;;;22.13;47.04
40574;BME280;26283;49.020;8.644;2023-05-29T00:22:33;99296.88;;;22.12;46.98
40574;BME280;26283;49.020;8.644;2023-05-29T00:25:03;99302.66;;;22.10;46.96
40574;BME280;26283;49.020;8.644;2023-05-29T00:27:29;99293.94;;;22.08;46.95
40574;BME280;26283;49.020;8.644;2023-05-29T00:29:54;99301.34;;;22.08;46.94
40574;BME280;26283;49.020;8.644;2023-05-29T00:32:19;99298.06;;;22.06;46.98
40574;BME280;26283;49.020;8.644;2023-05-29T00:34:45;99300.00;;;22.05;47.00
40574;BME280;26283;49.020;8.644;2023-05-29T00:37:10;99290.94;;;22.05;47.01
40574;BME280;26283;49.020;8.644;2023-05-29T00:39:36;99293.16;;;22.03;47.03
40574;BME280;26283;49.020;8.644;2023-05-29T00:42:01;99295.91;;;22.03;47.02
40574;BME280;26283;49.020;8.644;2023-05-29T00:44:26;99287.16;;;22.01;46.99
40574;BME280;26283;49.020;8.644;2023-05-29T00:46:52;99293.72;;;22.00;47.02
40574;BME280;26283;49.020;8.644;2023-05-29T00:49:20;99285.78;;;21.98;47.02
40574;BME280;26283;49.020;8.644;2023-05-29T00:51:47;99282.22;;;21.98;47.05
40574;BME280;26283;49.020;8.644;2023-05-29T00:54:14;99285.25;;;21.96;46.95
40574;BME280;26283;49.020;8.644;2023-05-29T00:56:43;99287.19;;;21.96;47.09
40574;BME280;26283;49.020;8.644;2023-05-29T00:59:09;99286.34;;;21.95;47.03
40574;BME280;26283;49.020;8.644;2023-05-29T01:01:35;99283.91;;;21.94;47.00
40574;BME280;26283;49.020;8.644;2023-05-29T01:04:03;99280.34;;;21.93;47.02
40574;BME280;26283;49.020;8.644;2023-05-29T01:06:28;99282.28;;;21.93;47.09
40574;BME280;26283;49.020;8.644;2023-05-29T01:08:54;99280.91;;;21.90;47.10
40574;BME280;26283;49.020;8.644;2023-05-29T01:11:24;99277.06;;;21.91;47.11
40574;BME280;26283;49.020;8.644;2023-05-29T01:13:56;99275.44;;;21.90;47.13
40574;BME280;26283;49.020;8.644;2023-05-29T01:16:31;99280.91;;;21.90;47.17
40574;BME280;26283;49.020;8.644;2023-05-29T01:22:24;99280.41;;;21.88;47.49
40574;BME280;26283;49.020;8.644;2023-05-29T01:27:24;99284.56;;;21.85;47.00
40574;BME280;26283;49.020;8.644;2023-05-29T01:29:51;99277.75;;;21.83;47.16
40574;BME280;26283;49.020;8.644;2023-05-29T01:32:17;99275.00;;;21.83;47.19
40574;BME280;26283;49.020;8.644;2023-05-29T01:34:42;99277.75;;;21.83;47.17
40574;BME280;26283;49.020;8.644;2023-05-29T01:37:07;99276.09;;;21.82;47.14
40574;BME280;26283;49.020;8.644;2023-05-29T01:39:34;99278.03;;;21.81;47.13
40574;BME280;26283;49.020;8.644;2023-05-29T01:42:00;99278.31;;;21.80;47.13
40574;BME280;26283;49.020;8.644;2023-05-29T01:44:27;99280.25;;;21.79;47.12
40574;BME280;26283;49.020;8.644;2023-05-29T01:46:54;99283.81;;;21.80;47.19
40574;BME280;26283;49.020;8.644;2023-05-29T01:49:20;99279.72;;;21.77;47.21
40574;BME280;26283;49.020;8.644;2023-05-29T01:51:48;99271.78;;;21.76;47.23
40574;BME280;26283;49.020;8.644;2023-05-29T01:54:13;99267.38;;;21.75;47.14
40574;BME280;26283;49.020;8.644;2023-05-29T01:56:39;99270.13;;;21.75;47.03
40574;BME280;26283;49.020;8.644;2023-05-29T01:59:05;99274.81;;;21.74;47.08
40574;BME280;26283;49.020;8.644;2023-05-29T02:01:31;99280.56;;;21.73;47.12
40574;BME280;26283;49.020;8.644;2023-05-29T02:03:56;99273.47;;;21.72;47.08
40574;BME280;26283;49.020;8.644;2023-05-29T02:06:22;99278.13;;;21.71;47.01
40574;BME280;26283;49.020;8.644;2023-05-29T02:08:47;99276.50;;;21.70;47.00
40574;BME280;26283;49.020;8.644;2023-05-29T02:11:13;99269.66;;;21.68;46.99
40574;BME280;26283;49.020;8.644;2023-05-29T02:13:38;99267.72;;;21.68;47.01
40574;BME280;26283;49.020;8.644;2023-05-29T02:16:04;99279.81;;;21.67;47.04
40574;BME280;26283;49.020;8.644;2023-05-29T02:18:30;99271.06;;;21.65;47.08
40574;BME280;26283;49.020;8.644;2023-05-29T02:20:56;99263.63;;;21.66;47.05
40574;BME280;26283;49.020;8.644;2023-05-29T02:23:21;99261.22;;;21.64;47.02
40574;BME280;26283;49.020;8.644;2023-05-29T02:25:47;99256.84;;;21.63;46.99
40574;BME280;26283;49.020;8.644;2023-05-29T02:28:12;99258.78;;;21.63;46.98
40574;BME280;26283;49.020;8.644;2023-05-29T02:30:38;99252.47;;;21.62;47.01
40574;BME280;26283;49.020;8.644;2023-05-29T02:33:03;99260.97;;;21.61;47.00
40574;BME280;26283;49.020;8.644;2023-05-29T02:35:28;99256.31;;;21.61;46.97
40574;BME280;26283;49.020;8.644;2023-05-29T02:37:54;99259.63;;;21.58;46.95
40574;BME280;26283;49.020;8.644;2023-05-29T02:40:20;99265.94;;;21.59;46.93
40574;BME280;26283;49.020;8.644;2023-05-29T02:42:46;99264.31;;;21.58;46.92
40574;BME280;26283;49.020;8.644;2023-05-29T02:45:12;99266.22;;;21.57;46.98
40574;BME280;26283;49.020;8.644;2023-05-29T02:47:37;99276.37;;;21.57;47.00
40574;BME280;26283;49.020;8.644;2023-05-29T02:50:03;99279.41;;;21.55;46.96
40574;BME280;26283;49.020;8.644;2023-05-29T02:52:29;99276.66;;;21.55;46.94
40574;BME280;26283;49.020;8.644;2023-05-29T02:54:58;99275.84;;;21.54;46.92
40574;BME280;26283;49.020;8.644;2023-05-29T02:57:24;99276.94;;;21.53;46.95
40574;BME280;26283;49.020;8.644;2023-05-29T02:59:50;99277.25;;;21.52;46.98
40574;BME280;26283;49.020;8.644;2023-05-29T03:02:19;99275.59;;;21.51;47.03
40574;BME280;26283;49.020;8.644;2023-05-29T03:04:45;99273.16;;;21.49;46.98
40574;BME280;26283;49.020;8.644;2023-05-29T03:07:10;99276.19;;;21.48;46.93
40574;BME280;26283;49.020;8.644;2023-05-29T03:09:35;99275.34;;;21.47;46.85
40574;BME280;26283;49.020;8.644;2023-05-29T03:12:01;99285.50;;;21.47;46.84
40574;BME280;26283;49.020;8.644;2023-05-29T03:14:27;99276.75;;;21.45;46.88
40574;BME280;26283;49.020;8.644;2023-05-29T03:16:53;99280.59;;;21.44;46.90
40574;BME280;26283;49.020;8.644;2023-05-29T03:19:19;99286.91;;;21.44;46.96
40574;BME280;26283;49.020;8.644;2023-05-29T03:21:44;99283.66;;;21.42;46.92
40574;BME280;26283;49.020;8.644;2023-05-29T03:24:10;99284.75;;;21.41;46.89
40574;BME280;26283;49.020;8.644;2023-05-29T03:26:36;99278.47;;;21.41;46.98
40574;BME280;26283;49.020;8.644;2023-05-29T03:29:02;99281.19;;;21.41;47.01
40574;BME280;26283;49.020;8.644;2023-05-29T03:31:27;99282.88;;;21.37;46.96
40574;BME280;26283;49.020;8.644;2023-05-29T03:33:52;99284.00;;;21.36;46.97
40574;BME280;26283;49.020;8.644;2023-05-29T03:36:18;99288.66;;;21.35;46.97
40574;BME280;26283;49.020;8.644;2023-05-29T03:38:44;99288.94;;;21.34;46.95
40574;BME280;26283;49.020;8.644;2023-05-29T03:41:10;99293.59;;;21.33;46.96
40574;BME280;26283;49.020;8.644;2023-05-29T03:43:35;99301.81;;;21.33;46.98
40574;BME280;26283;49.020;8.644;2023-05-29T03:46:01;99289.22;;;21.32;46.96
40574;BME280;26283;49.020;8.644;2023-05-29T03:48:27;99288.69;;;21.30;46.96
40574;BME280;26283;49.020;8.644;2023-05-29T03:50:52;99293.34;;;21.30;46.97
40574;BME280;26283;49.020;8.644;2023-05-29T03:53:17;99283.50;;;21.29;46.89
40574;BME280;26283;49.020;8.644;2023-05-29T03:55:43;99292.00;;;21.27;46.97
40574;BME280;26283;49.020;8.644;2023-05-29T03:58:08;99287.63;;;21.26;46.88
40574;BME280;26283;49.020;8.644;2023-05-29T04:00:34;99288.72;;;21.25;46.87
40574;BME280;26283;49.020;8.644;2023-05-29T04:03:00;99288.72;;;21.25;46.84
40574;BME280;26283;49.020;8.644;2023-05-29T04:05:25;99299.16;;;21.23;46.72
40574;BME280;26283;49.020;8.644;2023-05-29T04:07:52;99295.59;;;21.23;46.75
40574;BME280;26283;49.020;8.644;2023-05-29T04:10:17;99301.91;;;21.23;46.73
40574;BME280;26283;49.020;8.644;2023-05-29T04:12:43;99304.97;;;21.22;46.68
40574;BME280;26283;49.020;8.644;2023-05-29T04:15:08;99307.13;;;21.19;46.72
40574;BME280;26283;49.020;8.644;2023-05-29T04:17:34;99313.72;;;21.18;46.71
40574;BME280;26283;49.020;8.644;2023-05-29T04:19:59;99319.19;;;21.18;46.83
40574;BME280;26283;49.020;8.644;2023-05-29T04:22:28;99317.56;;;21.17;46.92
40574;BME280;26283;49.020;8.644;2023-05-29T04:24:54;99317.84;;;21.16;46.93
40574;BME280;26283;49.020;8.644;2023-05-29T04:27:19;99328.00;;;21.15;46.92
40574;BME280;26283;49.020;8.644;2023-05-29T04:29:45;99321.97;;;21.13;46.95
40574;BME280;26283;49.020;8.644;2023-05-29T04:32:10;99321.97;;;21.13;46.97
40574;BME280;26283;49.020;8.644;2023-05-29T04:34:39;99332.41;;;21.11;47.09
40574;BME280;26283;49.020;8.644;2023-05-29T04:37:05;99331.59;;;21.11;47.13
40574;BME280;26283;49.020;8.644;2023-05-29T04:39:31;99333.50;;;21.10;47.21
40574;BME280;26283;49.020;8.644;2023-05-29T04:41:56;99342.81;;;21.09;47.26
40574;BME280;26283;49.020;8.644;2023-05-29T04:44:24;99339.56;;;21.07;47.24
40574;BME280;26283;49.020;8.644;2023-05-29T04:46:51;99346.94;;;21.07;47.26
40574;BME280;26283;49.020;8.644;2023-05-29T04:49:17;99353.53;;;21.06;47.30
40574;BME280;26283;49.020;8.644;2023-05-29T04:51:43;99362.84;;;21.05;47.41
40574;BME280;26283;49.020;8.644;2023-05-29T04:54:10;99357.66;;;21.03;47.43
40574;BME280;26283;49.020;8.644;2023-05-29T04:56:36;99360.41;;;21.03;47.52
40574;BME280;26283;49.020;8.644;2023-05-29T04:59:02;99355.19;;;21.02;47.55
40574;BME280;26283;49.020;8.644;2023-05-29T05:01:27;99368.09;;;21.01;47.60
40574;BME280;26283;49.020;8.644;2023-05-29T05:03:54;99369.19;;;21.00;47.70
40574;BME280;26283;49.020;8.644;2023-05-29T05:06:21;99367.56;;;20.99;47.74
40574;BME280;26283;49.020;8.644;2023-05-29T05:08:47;99364.28;;;20.97;47.83
40574;BME280;26283;49.020;8.644;2023-05-29T05:11:12;99365.41;;;20.96;47.91
40574;BME280;26283;49.020;8.644;2023-05-29T05:13:39;99377.19;;;20.97;48.00
40574;BME280;26283;49.020;8.644;2023-05-29T05:16:04;99375.00;;;20.94;48.07
40574;BME280;26283;49.020;8.644;2023-05-29T05:18:29;99377.75;;;20.94;48.12
40574;BME280;26283;49.020;8.644;2023-05-29T05:20:55;99379.66;;;20.93;48.00
40574;BME280;26283;49.020;8.644;2023-05-29T05:23:20;99377.19;;;20.92;47.89
40574;BME280;26283;49.020;8.644;2023-05-29T05:25:46;99388.16;;;20.92;47.95
40574;BME280;26283;49.020;8.644;2023-05-29T05:28:11;99385.69;;;20.90;47.97
40574;BME280;26283;49.020;8.644;2023-05-29T05:30:38;99384.88;;;20.90;47.95
40574;BME280;26283;49.020;8.644;2023-05-29T05:33:03;99382.41;;;20.88;48.05
40574;BME280;26283;49.020;8.644;2023-05-29T05:35:29;99390.63;;;20.88;48.00
40574;BME280;26283;49.020;8.644;2023-05-29T05:37:54;99389.00;;;20.87;48.09
40574;BME280;26283;49.020;8.644;2023-05-29T05:40:23;99393.94;;;20.85;48.18
40574;BME280;26283;49.020;8.644;2023-05-29T05:42:48;99396.69;;;20.85;48.28
40574;BME280;26283;49.020;8.644;2023-05-29T05:45:13;99392.31;;;20.84;48.38
40574;BME280;26283;49.020;8.644;2023-05-29T05:47:39;99400.81;;;20.82;48.52
40574;BME280;26283;49.020;8.644;2023-05-29T05:50:04;99399.16;;;20.81;48.55
40574;BME280;26283;49.020;8.644;2023-05-29T05:52:30;99398.34;;;20.81;48.61
40574;BME280;26283;49.020;8.644;2023-05-29T05:54:57;99398.34;;;20.81;48.79
40574;BME280;26283;49.020;8.644;2023-05-29T05:57:23;99408.75;;;20.79;48.83
40574;BME280;26283;49.020;8.644;2023-05-29T05:59:48;99407.97;;;20.78;48.91
40574;BME280;26283;49.020;8.644;2023-05-29T06:02:14;99410.72;;;20.78;48.89
40574;BME280;26283;49.020;8.644;2023-05-29T06:04:40;99422.75;;;20.77;48.97
40574;BME280;26283;49.020;8.644;2023-05-29T06:07:05;99419.19;;;20.77;48.96
40574;BME280;26283;49.020;8.644;2023-05-29T06:09:31;99439.47;;;20.76;49.03
40574;BME280;26283;49.020;8.644;2023-05-29T06:11:56;99441.66;;;20.74;48.96
40574;BME280;26283;49.020;8.644;2023-05-29T06:14:23;99436.19;;;20.74;48.99
40574;BME280;26283;49.020;8.644;2023-05-29T06:16:48;99441.66;;;20.74;48.99
40574;BME280;26283;49.020;8.644;2023-05-29T06:19:14;99434.56;;;20.73;49.04
40574;BME280;26283;49.020;8.644;2023-05-29T06:21:40;99442.78;;;20.73;49.16
40574;BME280;26283;49.020;8.644;2023-05-29T06:24:05;99442.22;;;20.71;49.23
40574;BME280;26283;49.020;8.644;2023-05-29T06:26:31;99432.38;;;20.70;49.19
40574;BME280;26283;49.020;8.644;2023-05-29T06:28:57;99446.06;;;20.70;49.18
40574;BME280;26283;49.020;8.644;2023-05-29T06:31:22;99446.06;;;20.70;49.16
40574;BME280;26283;49.020;8.644;2023-05-29T06:33:48;99444.44;;;20.69;49.25
40574;BME280;26283;49.020;8.644;2023-05-29T06:36:13;99449.09;;;20.68;49.26
40574;BME280;26283;49.020;8.644;2023-05-29T06:38:39;99438.13;;;20.68;49.28
40574;BME280;26283;49.020;8.644;2023-05-29T06:41:04;99437.59;;;20.66;49.88
40574;BME280;26283;49.020;8.644;2023-05-29T06:43:29;99461.13;;;20.67;49.97
40574;BME280;26283;49.020;8.644;2023-05-29T06:45:55;99455.38;;;20.69;50.22
40574;BME280;26283;49.020;8.644;2023-05-29T06:48:20;99458.66;;;20.71;50.27
40574;BME280;26283;49.020;8.644;2023-05-29T06:50:49;99455.09;;;20.70;50.33
40574;BME280;26283;49.020;8.644;2023-05-29T06:53:14;99462.50;;;20.70;50.40
40574;BME280;26283;49.020;8.644;2023-05-29T06:55:40;99464.12;;;20.71;50.45
40574;BME280;26283;49.020;8.644;2023-05-29T06:58:06;99459.75;;;20.70;50.50
40574;BME280;26283;49.020;8.644;2023-05-29T07:00:31;99458.13;;;20.69;50.57
40574;BME280;26283;49.020;8.644;2023-05-29T07:02:57;99463.31;;;20.70;50.64
40574;BME280;26283;49.020;8.644;2023-05-29T07:05:22;99458.13;;;20.69;50.69
40574;BME280;26283;49.020;8.644;2023-05-29T07:07:48;99455.38;;;20.69;50.76
40574;BME280;26283;49.020;8.644;2023-05-29T07:10:13;99458.94;;;20.69;50.80
40574;BME280;26283;49.020;8.644;2023-05-29T07:12:38;99447.97;;;20.69;50.85
40574;BME280;26283;49.020;8.644;2023-05-29T07:15:04;99459.75;;;20.70;50.91
40574;BME280;26283;49.020;8.644;2023-05-29T07:17:30;99455.38;;;20.69;50.97
40574;BME280;26283;49.020;8.644;2023-05-29T07:19:56;99464.12;;;20.71;51.01
40574;BME280;26283;49.020;8.644;2023-05-29T07:22:21;99471.25;;;20.72;51.05
40574;BME280;26283;49.020;8.644;2023-05-29T07:24:46;99469.63;;;20.71;51.08
40574;BME280;26283;49.020;8.644;2023-05-29T07:27:12;99470.44;;;20.71;51.10
40574;BME280;26283;49.020;8.644;2023-05-29T07:29:37;99472.06;;;20.72;51.14
40574;BME280;26283;49.020;8.644;2023-05-29T07:32:03;99477.28;;;20.74;51.17
40574;BME280;26283;49.020;8.644;2023-05-29T07:34:28;99476.44;;;20.73;51.20
40574;BME280;26283;49.020;8.644;2023-05-29T07:36:57;99477.81;;;20.76;51.24
40574;BME280;26283;49.020;8.644;2023-05-29T07:39:23;99482.47;;;20.75;51.32
40574;BME280;26283;49.020;8.644;2023-05-29T07:41:49;99480.28;;;20.77;51.38
40574;BME280;26283;49.020;8.644;2023-05-29T07:44:15;99480.28;;;20.77;51.49
40574;BME280;26283;49.020;8.644;2023-05-29T07:46:40;99481.91;;;20.78;51.59
40574;BME280;26283;49.020;8.644;2023-05-29T07:49:06;99481.59;;;20.80;51.74
40574;BME280;26283;49.020;8.644;2023-05-29T07:51:31;99480.50;;;20.81;51.82
40574;BME280;26283;49.020;8.644;2023-05-29T07:53:57;99480.22;;;20.82;51.98
40574;BME280;26283;49.020;8.644;2023-05-29T07:56:22;99483.50;;;20.84;51.97
40574;BME280;26283;49.020;8.644;2023-05-29T07:58:48;99486.78;;;20.86;51.92
40574;BME280;26283;49.020;8.644;2023-05-29T08:01:13;99483.78;;;20.88;52.06
40574;BME280;26283;49.020;8.644;2023-05-29T08:03:41;99485.41;;;20.89;51.61
40574;BME280;26283;49.020;8.644;2023-05-29T08:06:06;99492.25;;;20.92;51.50
40574;BME280;26283;49.020;8.644;2023-05-29T08:08:32;99484.56;;;20.94;51.51
40574;BME280;26283;49.020;8.644;2023-05-29T08:10:57;99481.84;;;20.94;51.51
40574;BME280;26283;49.020;8.644;2023-05-29T08:13:23;99483.19;;;20.96;51.52
40574;BME280;26283;49.020;8.644;2023-05-29T08:15:48;99484.84;;;20.97;51.53
40574;BME280;26283;49.020;8.644;2023-05-29T08:18:13;99484.25;;;21.00;51.54
40574;BME280;26283;49.020;8.644;2023-05-29T08:20:39;99478.78;;;21.00;51.54
40574;BME280;26283;49.020;8.644;2023-05-29T08:23:05;99480.13;;;21.03;51.82
40574;BME280;26283;49.020;8.644;2023-05-29T08:25:30;99471.62;;;21.04;51.80
40574;BME280;26283;49.020;8.644;2023-05-29T08:27:56;99478.47;;;21.07;51.75
40574;BME280;26283;49.020;8.644;2023-05-29T08:30:21;99476.28;;;21.09;51.70
40574;BME280;26283;49.020;8.644;2023-05-29T08:32:47;99476.00;;;21.10;51.63
40574;BME280;26283;49.020;8.644;2023-05-29T08:35:12;99479.28;;;21.12;51.55
40574;BME280;26283;49.020;8.644;2023-05-29T08:37:38;99480.34;;;21.16;51.50
40574;BME280;26283;49.020;8.644;2023-05-29T08:40:03;99476.50;;;21.17;51.48
40574;BME280;26283;49.020;8.644;2023-05-29T08:45:22;99472.94;;;21.22;51.39
40574;BME280;26283;49.020;8.644;2023-05-29T08:47:51;99470.44;;;21.26;51.35
40574;BME280;26283;49.020;8.644;2023-05-29T08:50:17;99477.28;;;21.28;51.31
40574;BME280;26283;49.020;8.644;2023-05-29T08:52:43;99474.25;;;21.30;51.27
40574;BME280;26283;49.020;8.644;2023-05-29T08:55:09;99480.28;;;21.32;51.22
40574;BME280;26283;49.020;8.644;2023-05-29T08:57:36;99480.53;;;21.35;51.21
40574;BME280;26283;49.020;8.644;2023-05-29T09:00:03;99482.72;;;21.38;51.18
40574;BME280;26283;49.020;8.644;2023-05-29T09:02:41;99483.25;;;21.40;51.16
40574;BME280;26283;49.020;8.644;2023-05-29T09:05:09;99484.31;;;21.44;51.13
40574;BME280;26283;49.020;8.644;2023-05-29T09:07:35;99482.91;;;21.47;51.08
40574;BME280;26283;49.020;8.644;2023-05-29T09:10:05;99481.53;;;21.49;51.04
40574;BME280;26283;49.020;8.644;2023-05-29T09:12:31;99484.81;;;21.51;50.92
40574;BME280;26283;49.020;8.644;2023-05-29T09:14:57;99479.88;;;21.53;50.86
40574;BME280;26283;49.020;8.644;2023-05-29T09:17:22;99482.03;;;21.57;50.83
40574;BME280;26283;49.020;8.644;2023-05-29T09:19:48;99481.47;;;21.60;50.78
40574;BME280;26283;49.020;8.644;2023-05-29T09:22:14;99482.81;;;21.62;50.73
40574;BME280;26283;49.020;8.644;2023-05-29T09:24:41;99476.75;;;21.65;50.71
40574;BME280;26283;49.020;8.644;2023-05-29T09:27:08;99491.00;;;21.67;50.65
40574;BME280;26283;49.020;8.644;2023-05-29T09:29:41;99482.19;;;21.70;50.55
40574;BME280;26283;49.020;8.644;2023-05-29T09:32:15;99488.75;;;21.74;50.54
40574;BME280;26283;49.020;8.644;2023-05-29T09:34:42;99485.44;;;21.77;50.49
40574;BME280;26283;49.020;8.644;2023-05-29T09:37:08;99486.78;;;21.80;50.45
40574;BME280;26283;49.020;8.644;2023-05-29T09:39:47;99482.66;;;21.82;50.40
40574;BME280;26283;49.020;8.644;2023-05-29T09:42:14;99481.78;;;21.87;50.33
40574;BME280;26283;49.020;8.644;2023-05-29T09:44:40;99477.94;;;21.88;50.27
40574;BME280;26283;49.020;8.644;2023-05-29T09:47:06;99483.66;;;21.92;50.20
40574;BME280;26283;49.020;8.644;2023-05-29T09:49:32;99485.03;;;21.94;50.15
40574;BME280;26283;49.020;8.644;2023-05-29T09:51:57;99482.00;;;21.96;50.08
40574;BME280;26283;49.020;8.644;2023-05-29T09:54:26;99479.78;;;21.98;50.01
40574;BME280;26283;49.020;8.644;2023-05-29T09:56:54;99477.31;;;22.01;49.94
40574;BME280;26283;49.020;8.644;2023-05-29T09:59:23;99482.22;;;22.04;49.88
40574;BME280;26283;49.020;8.644;2023-05-29T10:01:56;99483.59;;;22.07;49.82
40574;BME280;26283;49.020;8.644;2023-05-29T10:04:25;99474.75;;;22.10;49.73
40574;BME280;26283;49.020;8.644;2023-05-29T10:06:51;99474.16;;;22.13;49.66
40574;BME280;26283;49.020;8.644;2023-05-29T10:09:18;99470.84;;;22.16;49.54
40574;BME280;26283;49.020;8.644;2023-05-29T10:11:48;99462.03;;;22.19;49.51
40574;BME280;26283;49.020;8.644;2023-05-29T10:14:18;99457.09;;;22.21;49.46
40574;BME280;26283;49.020;8.644;2023-05-29T10:16:46;99463.62;;;22.25;49.35
40574;BME280;26283;49.020;8.644;2023-05-29T10:19:19;99464.16;;;22.27;49.30
40574;BME280;26283;49.020;8.644;2023-05-29T10:21:48;99456.97;;;22.31;49.17
40574;BME280;26283;49.020;8.644;2023-05-29T10:24:14;99460.22;;;22.33;49.15
40574;BME280;26283;49.020;8.644;2023-05-29T10:26:42;99464.03;;;22.37;49.09
40574;BME280;26283;49.020;8.644;2023-05-29T10:29:12;99457.97;;;22.40;49.04
40574;BME280;26283;49.020;8.644;2023-05-29T10:39:45;99453.47;;;22.49;48.82
40574;BME280;26283;49.020;8.644;2023-05-29T10:42:48;99454.00;;;22.51;48.70
40574;BME280;26283;49.020;8.644;2023-05-29T10:53:06;99449.78;;;22.59;48.59
40574;BME280;26283;49.020;8.644;2023-05-29T10:55:38;99436.56;;;22.61;48.56
40574;BME280;26283;49.020;8.644;2023-05-29T10:58:07;99446.97;;;22.64;48.49
40574;BME280;26283;49.020;8.644;2023-05-29T11:00:33;99445.59;;;22.67;48.43
40574;BME280;26283;49.020;8.644;2023-05-29T11:03:03;99446.94;;;22.69;48.42
40574;BME280;26283;49.020;8.644;2023-05-29T11:05:28;99451.84;;;22.72;48.33
40574;BME280;26283;49.020;8.644;2023-05-29T11:07:58;99450.41;;;22.75;48.30
40574;BME280;26283;49.020;8.644;2023-05-29T11:13:26;99441.84;;;22.81;48.13
40574;BME280;26283;49.020;8.644;2023-05-29T11:18:51;99449.22;;;22.86;48.05
40574;BME280;26283;49.020;8.644;2023-05-29T11:24:03;99444.75;;;22.90;47.87
40574;BME280;26283;49.020;8.644;2023-05-29T11:26:32;99446.41;;;22.91;47.89
40574;BME280;26283;49.020;8.644;2023-05-29T11:29:04;99445.00;;;22.94;47.81
40574;BME280;26283;49.020;8.644;2023-05-29T11:31:32;99451.31;;;22.94;47.70
40574;BME280;26283;49.020;8.644;2023-05-29T11:34:00;99444.37;;;22.97;47.68
40574;BME280;26283;49.020;8.644;2023-05-29T11:36:27;99441.62;;;22.97;47.64
40574;BME280;26283;49.020;8.644;2023-05-29T11:38:53;99440.22;;;22.99;47.64
40574;BME280;26283;49.020;8.644;2023-05-29T11:41:19;99450.94;;;23.01;47.64
40574;BME280;26283;49.020;8.644;2023-05-29T11:43:44;99447.88;;;23.02;47.58
40574;BME280;26283;49.020;8.644;2023-05-29T11:46:20;99456.12;;;23.02;47.54
40574;BME280;26283;49.020;8.644;2023-05-29T11:48:48;99448.41;;;23.04;47.53
40574;BME280;26283;49.020;8.644;2023-05-29T11:51:14;99434.66;;;23.04;47.49
40574;BME280;26283;49.020;8.644;2023-05-29T11:53:41;99435.47;;;23.05;47.49
40574;BME280;26283;49.020;8.644;2023-05-29T11:56:10;99440.69;;;23.06;47.45
40574;BME280;26283;49.020;8.644;2023-05-29T11:58:38;99438.47;;;23.08;47.41
40574;BME280;26283;49.020;8.644;2023-05-29T12:01:04;99437.34;;;23.09;47.42
40574;BME280;26283;49.020;8.644;2023-05-29T12:03:36;99439.00;;;23.10;47.43
40574;BME280;26283;49.020;8.644;2023-05-29T12:06:02;99435.13;;;23.11;47.40
40574;BME280;26283;49.020;8.644;2023-05-29T12:08:27;99437.56;;;23.13;47.39
40574;BME280;26283;49.020;8.644;2023-05-29T12:10:53;99435.66;;;23.13;47.37
40574;BME280;26283;49.020;8.644;2023-05-29T12:13:19;99433.41;;;23.15;47.40
40574;BME280;26283;49.020;8.644;2023-05-29T12:15:44;99425.19;;;23.15;47.35
40574;BME280;26283;49.020;8.644;2023-05-29T12:18:10;99429.56;;;23.16;47.39
40574;BME280;26283;49.020;8.644;2023-05-29T12:20:36;99428.75;;;23.16;47.39
40574;BME280;26283;49.020;8.644;2023-05-29T12:23:02;99427.59;;;23.17;47.35
40574;BME280;26283;49.020;8.644;2023-05-29T12:25:28;99433.91;;;23.17;47.33
40574;BME280;26283;49.020;8.644;2023-05-29T12:27:55;99445.72;;;23.18;47.32
40574;BME280;26283;49.020;8.644;2023-05-29T12:30:22;99434.72;;;23.18;47.37
40574;BME280;26283;49.020;8.644;2023-05-29T12:32:49;99435.53;;;23.18;47.33
40574;BME280;26283;49.020;8.644;2023-05-29T12:35:22;99437.19;;;23.19;47.31
40574;BME280;26283;49.020;8.644;2023-05-29T12:40:20;99429.47;;;23.21;47.42
40574;BME280;26283;49.020;8.644;2023-05-29T12:42:52;99439.34;;;23.22;47.41
40574;BME280;26283;49.020;8.644;2023-05-29T12:45:18;99431.91;;;23.23;47.33
40574;BME280;26283;49.020;8.644;2023-05-29T12:47:54;99431.03;;;23.28;47.22
40574;BME280;26283;49.020;8.644;2023-05-29T12:55:22;99430.66;;;23.34;47.21
40574;BME280;26283;49.020;8.644;2023-05-29T12:57:47;99434.53;;;23.33;47.23
40574;BME280;26283;49.020;8.644;2023-05-29T13:00:13;99428.22;;;23.33;47.24
40574;BME280;26283;49.020;8.644;2023-05-29T13:02:39;99428.22;;;23.33;47.30
40574;BME280;26283;49.020;8.644;2023-05-29T13:05:06;99425.47;;;23.33;47.35
40574;BME280;26283;49.020;8.644;2023-05-29T13:07:32;99424.34;;;23.34;47.38
40574;BME280;26283;49.020;8.644;2023-05-29T13:09:59;99426.78;;;23.35;47.37
40574;BME280;26283;49.020;8.644;2023-05-29T13:12:24;99430.37;;;23.36;47.40
40574;BME280;26283;49.020;8.644;2023-05-29T13:14:50;99425.97;;;23.35;47.39
40574;BME280;26283;49.020;8.644;2023-05-29T13:17:15;99424.88;;;23.36;47.44
40574;BME280;26283;49.020;8.644;2023-05-29T13:19:40;99412.75;;;23.37;47.44
40574;BME280;26283;49.020;8.644;2023-05-29T13:22:07;99417.44;;;23.36;47.47
40574;BME280;26283;49.020;8.644;2023-05-29T13:24:33;99412.75;;;23.37;47.45
40574;BME280;26283;49.020;8.644;2023-05-29T13:26:59;99421.00;;;23.37;47.49
40574;BME280;26283;49.020;8.644;2023-05-29T13:29:26;99424.56;;;23.37;47.55
40574;BME280;26283;49.020;8.644;2023-05-29T13:31:51;99408.88;;;23.38;47.58
40574;BME280;26283;49.020;8.644;2023-05-29T13:34:17;99396.75;;;23.39;47.61
40574;BME280;26283;49.020;8.644;2023-05-29T13:36:42;99409.38;;;23.40;47.57